createdAt,value
2018-11-26T00:02:12.115Z,5.06
2018-11-26T00:05:15.173Z,5.05
2018-11-26T00:08:34.542Z,5.02
2018-11-26T00:11:38.170Z,5.01
2018-11-26T00:14:41.219Z,4.99
2018-11-26T00:17:44.252Z,5.01
2018-11-26T00:20:47.820Z,5.06
2018-11-26T00:23:51.062Z,5.03
2018-11-26T00:26:54.085Z,4.99
2018-11-26T00:29:57.161Z,4.32
2018-11-26T00:33:01.005Z,5.03
2018-11-26T00:36:05.377Z,5.02
2018-11-26T00:39:10.935Z,5.06
2018-11-26T00:42:14.015Z,5.06
2018-11-26T00:45:17.033Z,5.04
2018-11-26T00:48:20.039Z,5.07
2018-11-26T00:51:23.045Z,5.00
2018-11-26T00:54:26.059Z,5.06
2018-11-26T00:57:29.044Z,5.06
2018-11-26T01:00:32.126Z,5.01
2018-11-26T01:03:35.265Z,5.06
2018-11-26T01:06:38.290Z,5.05
2018-11-26T01:09:41.337Z,5.03
2018-11-26T01:12:44.921Z,4.99
2018-11-26T01:15:48.106Z,5.06
2018-11-26T01:18:51.602Z,5.02
2018-11-26T01:21:54.698Z,5.07
2018-11-26T01:24:58.618Z,5.08
2018-11-26T01:28:01.881Z,5.11
2018-11-26T01:31:05.161Z,5.03
2018-11-26T01:34:08.858Z,5.06
2018-11-26T01:37:11.994Z,5.05
2018-11-26T01:40:28.603Z,5.04
2018-11-26T01:43:31.659Z,5.14
2018-11-26T01:46:34.695Z,5.14
2018-11-26T01:49:37.682Z,5.08
2018-11-26T01:52:40.787Z,5.09
2018-11-26T01:55:43.985Z,5.10
2018-11-26T01:58:47.037Z,5.13
2018-11-26T02:01:50.070Z,5.15
2018-11-26T02:04:53.170Z,5.07
2018-11-26T02:07:56.269Z,5.09
2018-11-26T02:11:06.836Z,5.11
2018-11-26T02:14:10.633Z,5.07
2018-11-26T02:17:13.720Z,5.05
2018-11-26T02:20:16.781Z,5.04
2018-11-26T02:23:19.833Z,5.09
2018-11-26T02:26:23.270Z,5.08
2018-11-26T02:29:26.317Z,5.03
2018-11-26T02:32:29.337Z,5.04
2018-11-26T02:35:32.414Z,5.02
2018-11-26T02:38:38.747Z,5.08
2018-11-26T02:41:41.933Z,5.08
2018-11-26T02:44:44.963Z,5.10
2018-11-26T02:47:48.009Z,5.03
2018-11-26T02:50:51.779Z,5.03
2018-11-26T02:53:55.994Z,5.04
2018-11-26T02:57:00.508Z,5.04
2018-11-26T03:00:05.180Z,5.01
2018-11-26T03:03:08.339Z,5.07
2018-11-26T03:06:11.566Z,5.02
2018-11-26T03:09:14.606Z,5.02
2018-11-26T03:12:17.689Z,5.06
2018-11-26T03:15:20.753Z,4.99
2018-11-26T03:18:23.752Z,5.08
2018-11-26T03:21:26.926Z,5.00
2018-11-26T03:24:29.933Z,5.00
2018-11-26T03:27:34.191Z,5.03
2018-11-26T03:30:37.311Z,4.99
2018-11-26T03:33:40.437Z,5.08
2018-11-26T03:36:43.473Z,5.06
2018-11-26T03:39:47.281Z,5.10
2018-11-26T03:42:50.445Z,5.05
2018-11-26T03:45:53.538Z,5.06
2018-11-26T03:48:56.580Z,5.12
2018-11-26T03:52:00.217Z,5.08
2018-11-26T03:55:03.616Z,5.04
2018-11-26T03:58:06.646Z,5.11
2018-11-26T04:01:09.669Z,5.09
2018-11-26T04:04:12.875Z,5.04
2018-11-26T04:07:16.054Z,5.09
2018-11-26T04:10:18.986Z,5.06
2018-11-26T04:13:22.018Z,5.09
2018-11-26T04:16:25.040Z,5.07
2018-11-26T04:19:28.089Z,4.98
2018-11-26T04:22:31.130Z,5.02
2018-11-26T04:25:34.149Z,5.13
2018-11-26T04:28:37.233Z,5.08
2018-11-26T04:31:40.225Z,5.08
2018-11-26T04:34:43.408Z,5.21
2018-11-26T04:37:46.441Z,5.10
2018-11-26T04:40:50.605Z,5.12
2018-11-26T04:43:53.741Z,5.10
2018-11-26T04:46:56.758Z,5.09
2018-11-26T04:50:00.380Z,5.06
2018-11-26T04:53:03.742Z,5.08
2018-11-26T04:56:06.943Z,5.14
2018-11-26T04:59:09.950Z,5.18
2018-11-26T05:02:13.708Z,5.22
2018-11-26T05:05:16.765Z,5.05
2018-11-26T05:08:19.798Z,5.20
2018-11-26T05:11:22.826Z,5.06
2018-11-26T05:14:25.810Z,5.05
2018-11-26T05:17:28.822Z,5.14
2018-11-26T05:20:31.830Z,5.07
2018-11-26T05:23:34.877Z,5.00
2018-11-26T05:26:37.920Z,4.94
2018-11-26T05:29:40.918Z,4.92
2018-11-26T05:32:44.407Z,4.96
2018-11-26T05:35:48.322Z,4.92
2018-11-26T05:38:51.453Z,5.02
2018-11-26T05:41:54.510Z,5.05
2018-11-26T05:44:57.534Z,4.99
2018-11-26T05:48:00.587Z,4.94
2018-11-26T05:51:03.639Z,4.94
2018-11-26T05:54:06.678Z,4.94
2018-11-26T05:57:09.689Z,4.85
2018-11-26T06:00:19.606Z,4.95
2018-11-26T06:03:22.669Z,4.95
2018-11-26T06:06:25.669Z,4.88
2018-11-26T06:09:28.689Z,4.88
2018-11-26T06:12:31.746Z,4.96
2018-11-26T06:15:34.825Z,5.04
2018-11-26T06:18:37.919Z,5.02
2018-11-26T06:21:40.911Z,4.98
2018-11-26T06:24:43.934Z,4.97
2018-11-26T06:27:47.182Z,4.96
2018-11-26T06:30:50.226Z,4.98
2018-11-26T06:33:53.230Z,4.96
2018-11-26T06:36:56.277Z,4.94
2018-11-26T06:39:59.377Z,4.95
2018-11-26T06:43:02.451Z,4.97
2018-11-26T06:46:07.170Z,4.97
2018-11-26T06:49:10.162Z,5.01
2018-11-26T06:52:13.185Z,5.02
2018-11-26T06:55:18.729Z,5.03
2018-11-26T06:58:21.754Z,5.01
2018-11-26T07:01:24.790Z,5.01
2018-11-26T07:04:27.761Z,5.14
2018-11-26T07:07:30.790Z,5.10
2018-11-26T07:10:33.777Z,5.10
2018-11-26T07:13:36.920Z,5.15
2018-11-26T07:16:40.979Z,5.11
2018-11-26T07:19:45.427Z,5.13
2018-11-26T07:22:48.540Z,5.14
2018-11-26T07:25:52.228Z,5.15
2018-11-26T07:28:55.278Z,5.63
2018-11-26T07:31:58.333Z,5.89
2018-11-26T07:35:01.458Z,5.46
2018-11-26T07:38:04.902Z,5.39
2018-11-26T07:41:50.292Z,5.29
2018-11-26T07:44:53.532Z,5.28
2018-11-26T07:47:56.845Z,5.28
2018-11-26T07:51:00.002Z,5.23
2018-11-26T07:54:03.581Z,7.23
2018-11-26T07:57:06.642Z,14.11
2018-11-26T08:00:15.609Z,8.92
2018-11-26T08:03:19.368Z,7.12
2018-11-26T08:06:22.914Z,7.66
2018-11-26T08:09:26.145Z,15.82
2018-11-26T08:12:29.228Z,11.55
2018-11-26T08:57:13.551Z,6.02
2018-11-26T09:00:16.903Z,5.96
2018-11-26T09:03:20.369Z,6.00
2018-11-26T09:06:23.887Z,5.92
2018-11-26T09:09:32.811Z,5.89
2018-11-26T09:12:30.515Z,5.84
2018-11-26T09:15:33.763Z,5.86
2018-11-26T09:18:37.075Z,5.83
2018-11-26T09:21:40.436Z,5.84
2018-11-26T09:24:43.740Z,6.05
2018-11-26T09:27:47.044Z,5.86
2018-11-26T09:30:50.393Z,5.95
2018-11-26T09:33:53.716Z,5.86
2018-11-26T09:36:57.071Z,5.79
2018-11-26T09:40:00.340Z,5.77
2018-11-26T09:43:04.613Z,5.70
2018-11-26T09:46:07.951Z,5.76
2018-11-26T09:49:11.271Z,5.81
2018-11-26T09:52:14.566Z,5.80
2018-11-26T09:55:17.933Z,5.75
2018-11-26T09:58:21.264Z,5.69
2018-11-26T10:01:24.660Z,5.76
2018-11-26T10:04:27.955Z,5.79
2018-11-26T10:07:31.315Z,5.79
2018-11-26T10:10:34.624Z,5.78
2018-11-26T10:13:37.908Z,5.82
2018-11-26T10:16:41.295Z,5.82
2018-11-26T10:19:44.570Z,5.80
2018-11-26T10:22:48.981Z,5.82
2018-11-26T10:25:52.398Z,5.85
2018-11-26T10:28:55.671Z,5.86
2018-11-26T10:31:58.984Z,5.88
2018-11-26T10:35:02.291Z,5.90
2018-11-26T10:38:05.892Z,5.90
2018-11-26T10:41:09.213Z,5.86
2018-11-26T10:44:12.520Z,5.86
2018-11-26T10:47:15.861Z,5.88
2018-11-26T10:50:21.344Z,5.89
2018-11-26T10:53:24.679Z,5.92
2018-11-26T10:56:27.963Z,6.68
2018-11-26T10:59:31.245Z,6.18
2018-11-26T11:02:40.316Z,6.67
2018-11-26T11:05:43.661Z,6.29
2018-11-26T11:08:47.040Z,6.21
2018-11-26T11:11:50.361Z,6.18
2018-11-26T11:14:53.631Z,6.14
2018-11-26T11:17:56.940Z,6.07
2018-11-26T11:21:00.240Z,6.09
2018-11-26T11:24:03.629Z,6.16
2018-11-26T11:27:07.019Z,6.13
2018-11-26T11:30:18.978Z,6.18
2018-11-26T11:36:25.685Z,6.14
2018-11-26T11:39:28.997Z,6.16
2018-11-26T11:42:32.335Z,6.14
2018-11-26T11:45:35.654Z,6.14
2018-11-26T11:48:38.981Z,6.13
2018-11-26T11:51:42.273Z,6.16
2018-11-26T11:54:45.625Z,6.16
2018-11-26T11:57:49.042Z,6.11
2018-11-26T12:00:53.172Z,6.11
2018-11-26T12:03:56.534Z,6.17
2018-11-26T12:06:59.861Z,6.26
2018-11-26T12:10:03.653Z,6.24
2018-11-26T12:13:09.027Z,6.19
2018-11-26T12:16:12.456Z,6.17
2018-11-26T12:19:15.776Z,6.20
2018-11-26T12:22:19.085Z,6.18
2018-11-26T12:25:22.566Z,6.11
2018-11-26T12:28:25.886Z,6.18
2018-11-26T12:31:29.218Z,6.11
2018-11-26T12:34:32.622Z,6.08
2018-11-26T12:37:35.944Z,6.10
2018-11-26T12:40:39.300Z,6.08
2018-11-26T12:43:42.661Z,6.08
2018-11-26T12:46:45.989Z,5.83
2018-11-26T12:49:49.341Z,6.08
2018-11-26T12:52:52.748Z,6.10
2018-11-26T12:55:56.094Z,6.04
2018-11-26T12:58:59.385Z,6.08
2018-11-26T13:02:02.757Z,6.10
2018-11-26T13:05:09.384Z,6.50
2018-11-26T13:08:12.709Z,6.66
2018-11-26T13:11:16.053Z,6.36
2018-11-26T13:14:19.342Z,6.32
2018-11-26T13:17:22.657Z,6.23
2018-11-26T13:20:27.422Z,6.27
2018-11-26T13:23:30.745Z,6.18
2018-11-26T13:26:34.077Z,6.11
2018-11-26T13:29:37.385Z,6.09
2018-11-26T13:32:40.734Z,6.09
2018-11-26T13:35:45.572Z,6.12
2018-11-26T13:38:48.913Z,6.12
2018-11-26T13:41:52.213Z,6.01
2018-11-26T13:44:55.513Z,6.02
2018-11-26T13:47:58.809Z,6.02
2018-11-26T13:51:02.105Z,6.00
2018-11-26T13:54:05.628Z,6.05
2018-11-26T13:57:08.952Z,5.61
2018-11-26T14:00:14.036Z,5.93
2018-11-26T14:03:17.361Z,5.96
2018-11-26T14:06:21.489Z,5.95
2018-11-26T14:09:24.765Z,5.92
2018-11-26T14:12:28.067Z,5.98
2018-11-26T14:15:31.450Z,5.99
2018-11-26T14:18:34.813Z,6.04
2018-11-26T14:21:38.102Z,6.02
2018-11-26T14:24:41.398Z,5.98
2018-11-26T14:27:45.222Z,5.90
2018-11-26T14:30:48.531Z,5.95
2018-11-26T14:33:51.833Z,5.94
2018-11-26T14:36:55.163Z,5.95
2018-11-26T14:39:58.502Z,5.88
2018-11-26T14:43:02.717Z,5.95
2018-11-26T14:46:06.133Z,5.86
2018-11-26T14:49:09.460Z,5.93
2018-11-26T14:52:12.784Z,5.87
2018-11-26T14:55:22.073Z,5.83
2018-11-26T14:58:25.380Z,5.97
2018-11-26T15:01:28.718Z,5.95
2018-11-26T15:04:32.054Z,5.89
2018-11-26T15:07:35.381Z,5.90
2018-11-26T15:10:38.722Z,5.92
2018-11-26T15:13:42.026Z,5.85
2018-11-26T15:16:45.332Z,5.87
2018-11-26T15:19:48.629Z,5.94
2018-11-26T15:22:53.427Z,5.89
2018-11-26T15:25:56.744Z,5.89
2018-11-26T15:29:00.029Z,5.84
2018-11-26T15:32:03.375Z,5.82
2018-11-26T15:35:09.100Z,5.79
2018-11-26T15:38:12.485Z,5.92
2018-11-26T15:41:15.789Z,5.84
2018-11-26T15:44:19.102Z,5.85
2018-11-26T15:47:22.410Z,5.81
2018-11-26T15:50:25.725Z,5.84
2018-11-26T15:53:29.064Z,5.84
2018-11-26T15:56:32.347Z,5.85
2018-11-26T15:59:35.628Z,5.80
2018-11-26T16:02:38.981Z,5.83
2018-11-26T16:05:42.321Z,5.73
2018-11-26T16:08:46.805Z,5.80
2018-11-26T16:11:50.128Z,5.77
2018-11-26T16:14:53.425Z,5.80
2018-11-26T16:17:59.608Z,5.90
2018-11-26T16:21:02.953Z,5.83
2018-11-26T16:24:06.691Z,5.84
2018-11-26T16:27:10.040Z,5.83
2018-11-26T16:30:15.058Z,5.77
2018-11-26T16:33:18.452Z,5.74
2018-11-26T16:36:21.753Z,5.78
2018-11-26T16:39:25.171Z,5.73
2018-11-26T16:42:28.472Z,5.78
2018-11-26T16:45:31.827Z,5.72
2018-11-26T16:48:35.153Z,5.65
2018-11-26T16:51:38.479Z,5.60
2018-11-26T16:54:41.779Z,5.58
2018-11-26T16:57:45.221Z,5.54
2018-11-26T17:00:48.562Z,5.58
2018-11-26T17:03:51.849Z,5.54
2018-11-26T17:06:55.189Z,5.59
2018-11-26T17:09:58.537Z,5.67
2018-11-26T17:13:01.859Z,5.52
2018-11-26T17:16:05.488Z,5.53
2018-11-26T17:19:08.800Z,5.58
2018-11-26T17:22:12.097Z,5.53
2018-11-26T17:25:16.464Z,5.55
2018-11-26T17:28:19.812Z,5.50
2018-11-26T17:31:23.137Z,5.54
2018-11-26T17:34:26.454Z,5.53
2018-11-26T17:37:29.739Z,5.51
2018-11-26T17:40:33.103Z,5.49
2018-11-26T17:43:36.553Z,5.40
2018-11-26T17:46:39.877Z,5.48
2018-11-26T17:49:43.233Z,5.53
2018-11-26T17:52:46.551Z,5.49
2018-11-26T17:55:55.045Z,5.48
2018-11-26T17:58:59.342Z,5.39
2018-11-26T18:02:03.283Z,5.49
2018-11-26T18:05:10.837Z,5.40
2018-11-26T18:08:16.438Z,5.36
2018-11-26T18:11:19.818Z,5.45
2018-11-26T18:14:23.149Z,5.33
2018-11-26T18:17:26.480Z,5.40
2018-11-26T18:20:29.817Z,6.73
2018-11-26T18:23:33.137Z,5.77
2018-11-26T18:26:36.733Z,5.48
2018-11-26T18:29:40.069Z,5.26
2018-11-26T18:32:43.413Z,5.29
2018-11-26T18:35:47.798Z,5.29
2018-11-26T18:38:51.126Z,5.28
2018-11-26T18:41:54.479Z,5.17
2018-11-26T18:44:57.804Z,5.15
2018-11-26T18:48:01.129Z,5.31
2018-11-26T18:51:04.557Z,5.39
2018-11-26T18:54:07.864Z,5.45
2018-11-26T18:57:11.221Z,5.41
2018-11-26T19:00:19.445Z,5.35
2018-11-26T19:03:22.865Z,5.16
2018-11-26T19:06:26.176Z,5.16
2018-11-26T19:09:29.530Z,5.18
2018-11-26T19:12:32.870Z,5.23
2018-11-26T19:15:38.630Z,5.19
2018-11-26T19:18:41.966Z,5.16
2018-11-26T19:21:45.306Z,5.11
2018-11-26T19:24:48.641Z,5.09
2018-11-26T19:27:51.962Z,5.12
2018-11-26T19:30:55.285Z,5.01
2018-11-26T19:33:58.625Z,5.10
2018-11-26T19:37:02.097Z,5.11
2018-11-26T19:40:10.737Z,5.02
2018-11-26T19:43:14.849Z,5.11
2018-11-26T19:46:18.213Z,5.11
2018-11-26T19:49:21.560Z,5.07
2018-11-26T19:52:24.876Z,5.09
2018-11-26T19:55:28.260Z,5.05
2018-11-26T19:58:43.637Z,5.11
2018-11-26T20:01:46.974Z,5.10
2018-11-26T20:04:57.758Z,5.20
2018-11-26T20:08:01.113Z,5.17
2018-11-26T20:11:04.876Z,5.11
2018-11-26T20:14:08.233Z,5.11
2018-11-26T20:17:11.542Z,5.06
2018-11-26T20:20:14.873Z,5.11
2018-11-26T20:23:18.208Z,5.15
2018-11-26T20:26:21.492Z,5.14
2018-11-26T20:29:24.785Z,5.02
2018-11-26T20:32:30.268Z,5.16
2018-11-26T20:35:31.482Z,5.10
2018-11-26T20:38:34.836Z,5.21
2018-11-26T20:41:38.738Z,5.13
2018-11-26T20:44:42.381Z,5.17
2018-11-26T20:47:47.009Z,5.08
2018-11-26T20:50:51.815Z,5.10
2018-11-26T20:53:55.149Z,5.10
2018-11-26T20:56:58.462Z,4.99
2018-11-26T21:00:01.811Z,5.04
2018-11-26T21:03:08.145Z,5.08
2018-11-26T21:06:11.830Z,5.00
2018-11-26T21:09:15.048Z,6.66
2018-11-26T21:12:18.460Z,5.46
2018-11-26T21:15:28.040Z,5.26
2018-11-26T21:18:31.355Z,5.02
2018-11-26T21:21:34.769Z,5.01
2018-11-26T21:24:38.134Z,4.96
2018-11-26T21:27:41.489Z,5.00
2018-11-26T21:30:44.845Z,5.02
2018-11-26T21:33:48.173Z,4.86
2018-11-26T21:36:51.520Z,4.99
2018-11-26T21:39:54.869Z,5.00
2018-11-26T21:42:58.194Z,4.91
2018-11-26T21:46:01.894Z,4.92
2018-11-26T21:49:05.408Z,4.85
2018-11-26T21:52:08.764Z,4.91
2018-11-26T21:55:18.756Z,4.92
2018-11-26T21:58:22.198Z,4.98
2018-11-26T22:01:25.590Z,4.94
2018-11-26T22:04:29.041Z,5.07
2018-11-26T22:07:32.365Z,5.07
2018-11-26T22:10:37.366Z,4.92
2018-11-26T22:13:40.693Z,4.99
2018-11-26T22:16:44.845Z,5.01
2018-11-26T22:19:48.153Z,4.95
2018-11-26T22:22:51.521Z,4.90
2018-11-26T22:25:54.906Z,4.86
2018-11-26T22:28:58.217Z,4.82
2018-11-26T22:32:01.560Z,4.73
2018-11-26T22:35:05.850Z,4.74
2018-11-26T22:38:09.217Z,4.80
2018-11-26T22:41:12.489Z,4.80
2018-11-26T22:44:15.808Z,4.74
2018-11-26T22:47:19.188Z,4.74
2018-11-26T22:50:22.533Z,4.74
2018-11-26T22:53:25.928Z,4.73
2018-11-26T22:56:29.226Z,4.63
2018-11-26T22:59:32.540Z,4.61
2018-11-26T23:02:35.852Z,4.71
2018-11-26T23:05:39.224Z,4.61
2018-11-26T23:08:42.516Z,4.66
2018-11-26T23:11:45.816Z,4.57
2018-11-26T23:14:49.150Z,4.47
2018-11-26T23:17:52.481Z,4.48
2018-11-26T23:20:55.799Z,4.55
2018-11-26T23:23:59.121Z,4.40
2018-11-26T23:27:02.460Z,4.45
2018-11-26T23:30:12.589Z,4.53
2018-11-26T23:33:15.885Z,4.49
2018-11-26T23:36:19.162Z,4.45
2018-11-26T23:39:22.447Z,4.45
2018-11-26T23:42:25.755Z,4.37
2018-11-26T23:45:29.522Z,4.43
2018-11-26T23:48:33.258Z,4.58
2018-11-26T23:51:36.544Z,4.52
2018-11-26T23:54:39.832Z,4.46
2018-11-26T23:57:43.173Z,4.27
